createdAt,value
2022-11-21T00:01:23.473Z,96842.00
2022-11-21T00:03:50.905Z,96849.00
2022-11-21T00:06:19.467Z,96845.00
2022-11-21T00:08:47.080Z,96847.00
2022-11-21T00:11:14.636Z,96840.00
2022-11-21T00:13:42.743Z,96848.00
2022-11-21T00:16:13.821Z,96850.00
2022-11-21T00:18:41.727Z,96839.00
2022-11-21T00:21:13.471Z,96850.00
2022-11-21T00:23:40.496Z,96849.00
2022-11-21T00:26:09.698Z,96844.00
2022-11-21T00:28:36.982Z,96843.00
2022-11-21T00:31:05.580Z,96848.00
2022-11-21T00:33:35.231Z,96847.00
2022-11-21T00:36:09.902Z,96841.00
2022-11-21T00:38:37.631Z,96833.00
2022-11-21T00:41:05.948Z,96839.00
2022-11-21T00:43:33.504Z,96843.00
2022-11-21T00:46:02.959Z,96834.00
2022-11-21T00:48:31.751Z,96836.00
2022-11-21T00:51:00.864Z,96847.00
2022-11-21T00:53:29.080Z,96841.00
2022-11-21T00:55:56.506Z,96839.00
2022-11-21T00:58:23.824Z,96834.00
2022-11-21T01:00:51.154Z,96838.00
2022-11-21T01:03:18.681Z,96836.00
2022-11-21T01:05:45.781Z,96840.00
2022-11-21T01:08:13.001Z,96838.00
2022-11-21T01:10:40.141Z,96843.00
2022-11-21T01:13:07.399Z,96855.00
2022-11-21T01:15:34.898Z,96845.00
2022-11-21T01:18:02.062Z,96853.00
2022-11-21T01:20:29.190Z,96837.00
2022-11-21T01:22:56.386Z,96847.00
2022-11-21T01:25:23.673Z,96847.00
2022-11-21T01:27:50.855Z,96847.00
2022-11-21T01:30:18.112Z,96839.00
2022-11-21T01:32:49.980Z,96847.00
2022-11-21T01:35:18.337Z,96845.00
2022-11-21T01:37:49.629Z,96848.00
2022-11-21T01:40:17.314Z,96850.00
2022-11-21T01:43:10.304Z,96842.00
2022-11-21T01:45:59.714Z,96840.00
2022-11-21T01:49:04.532Z,96844.00
2022-11-21T01:51:47.013Z,96835.00
2022-11-21T01:54:25.504Z,96848.00
2022-11-21T01:57:22.826Z,96839.00
2022-11-21T02:00:03.235Z,96846.00
2022-11-21T02:02:37.991Z,96846.00
2022-11-21T02:05:09.487Z,96835.00
2022-11-21T02:07:41.474Z,96831.00
2022-11-21T02:10:10.437Z,96841.00
2022-11-21T02:12:51.912Z,96825.00
2022-11-21T02:15:21.536Z,96826.00
2022-11-21T02:17:48.718Z,96825.00
2022-11-21T02:20:19.419Z,96820.00
2022-11-21T02:23:18.824Z,96813.00
2022-11-21T02:25:46.168Z,96807.00
2022-11-21T02:28:17.146Z,96818.00
2022-11-21T02:30:44.655Z,96813.00
2022-11-21T02:33:13.347Z,96814.00
2022-11-21T02:35:40.925Z,96807.00
2022-11-21T02:38:18.755Z,96815.00
2022-11-21T02:41:02.217Z,96812.00
2022-11-21T02:43:38.363Z,96805.00
2022-11-21T02:46:05.502Z,96804.00
2022-11-21T02:48:32.644Z,96800.00
2022-11-21T02:50:59.873Z,96800.00
2022-11-21T02:53:27.048Z,96793.00
2022-11-21T02:55:54.202Z,96787.00
2022-11-21T02:58:21.247Z,96792.00
2022-11-21T03:00:48.481Z,96782.00
2022-11-21T03:03:15.700Z,96779.00
2022-11-21T03:05:43.307Z,96780.00
2022-11-21T03:08:10.493Z,96783.00
2022-11-21T03:10:37.847Z,96776.00
2022-11-21T03:13:05.070Z,96782.00
2022-11-21T03:15:34.971Z,96776.00
2022-11-21T03:18:03.172Z,96772.00
2022-11-21T03:20:32.769Z,96777.00
2022-11-21T03:22:59.822Z,96778.00
2022-11-21T03:25:27.001Z,96768.00
2022-11-21T03:27:54.670Z,96764.00
2022-11-21T03:30:25.782Z,96771.00
2022-11-21T03:32:56.966Z,96771.00
2022-11-21T03:35:24.870Z,96769.00
2022-11-21T03:37:52.215Z,96752.00
2022-11-21T03:40:19.299Z,96757.00
2022-11-21T03:42:46.726Z,96749.00
2022-11-21T03:45:13.789Z,96746.00
2022-11-21T03:47:41.329Z,96749.00
2022-11-21T03:50:08.905Z,96755.00
2022-11-21T03:52:36.052Z,96755.00
2022-11-21T03:55:03.414Z,96755.00
2022-11-21T03:57:30.594Z,96749.00
2022-11-21T03:59:57.632Z,96736.00
2022-11-21T04:02:24.711Z,96730.00
2022-11-21T04:04:51.913Z,96732.00
2022-11-21T04:07:19.054Z,96726.00
2022-11-21T04:09:46.335Z,96722.00
2022-11-21T04:12:13.369Z,96723.00
2022-11-21T04:14:40.496Z,96712.00
2022-11-21T04:17:07.614Z,96715.00
2022-11-21T04:19:34.734Z,96707.00
2022-11-21T04:22:01.780Z,96711.00
2022-11-21T04:24:29.690Z,96692.00
2022-11-21T04:26:57.223Z,96700.00
2022-11-21T04:29:24.312Z,96699.00
2022-11-21T04:31:51.494Z,96702.00
2022-11-21T04:34:18.642Z,96692.00
2022-11-21T04:36:46.049Z,96693.00
2022-11-21T04:39:13.306Z,96683.00
2022-11-21T04:41:40.464Z,96688.00
2022-11-21T04:44:07.631Z,96691.00
2022-11-21T04:46:34.765Z,96679.00
2022-11-21T04:49:02.029Z,96674.00
2022-11-21T04:51:29.207Z,96670.00
2022-11-21T04:53:56.252Z,96672.00
2022-11-21T04:56:23.448Z,96673.00
2022-11-21T04:58:53.499Z,96682.00
2022-11-21T05:01:20.640Z,96668.00
2022-11-21T05:03:48.046Z,96673.00
2022-11-21T05:06:15.258Z,96671.00
2022-11-21T05:08:42.269Z,96685.00
2022-11-21T05:11:28.051Z,96673.00
2022-11-21T05:13:55.638Z,96675.00
2022-11-21T05:16:22.907Z,96676.00
2022-11-21T05:18:50.054Z,96675.00
2022-11-21T05:21:17.163Z,96670.00
2022-11-21T05:23:44.336Z,96666.00
2022-11-21T05:26:11.472Z,96665.00
2022-11-21T05:28:38.708Z,96664.00
2022-11-21T05:31:05.732Z,96655.00
2022-11-21T05:33:32.953Z,96662.00
2022-11-21T05:36:00.001Z,96663.00
2022-11-21T05:38:27.132Z,96660.00
2022-11-21T05:40:54.240Z,96659.00
2022-11-21T05:43:40.075Z,96656.00
2022-11-21T05:46:07.284Z,96650.00
2022-11-21T05:48:36.681Z,96648.00
2022-11-21T05:51:05.104Z,96650.00
2022-11-21T05:53:32.680Z,96649.00
2022-11-21T05:56:12.040Z,96652.00
2022-11-21T05:58:39.721Z,96656.00
2022-11-21T06:01:08.413Z,96658.00
2022-11-21T06:03:39.704Z,96665.00
2022-11-21T06:06:11.884Z,96660.00
2022-11-21T06:08:43.174Z,96677.00
2022-11-21T06:11:16.450Z,96673.00
2022-11-21T06:13:43.974Z,96668.00
2022-11-21T06:16:14.822Z,96663.00
2022-11-21T06:18:44.633Z,96666.00
2022-11-21T06:21:18.300Z,96663.00
2022-11-21T06:23:46.737Z,96661.00
2022-11-21T06:26:19.693Z,96655.00
2022-11-21T06:28:48.017Z,96658.00
2022-11-21T06:31:20.251Z,96657.00
2022-11-21T06:33:48.166Z,96670.00
2022-11-21T06:36:17.785Z,96670.00
2022-11-21T06:38:46.319Z,96677.00
2022-11-21T06:41:19.997Z,96673.00
2022-11-21T06:43:47.561Z,96678.00
2022-11-21T06:46:16.232Z,96681.00
2022-11-21T06:48:44.196Z,96691.00
2022-11-21T06:51:20.012Z,96679.00
2022-11-21T06:53:48.898Z,96686.00
2022-11-21T06:56:16.224Z,96682.00
2022-11-21T06:58:43.323Z,96689.00
2022-11-21T07:01:11.223Z,96686.00
2022-11-21T07:03:38.292Z,96695.00
2022-11-21T07:06:06.738Z,96692.00
2022-11-21T07:08:40.865Z,96703.00
2022-11-21T07:11:28.788Z,96697.00
2022-11-21T07:13:56.633Z,96705.00
2022-11-21T07:16:26.366Z,96698.00
2022-11-21T07:18:53.774Z,96706.00
2022-11-21T07:21:20.902Z,96702.00
2022-11-21T07:23:48.744Z,96708.00
2022-11-21T07:26:15.982Z,96729.00
2022-11-21T07:28:43.708Z,96711.00
2022-11-21T07:31:13.915Z,96713.00
2022-11-21T07:33:43.599Z,96711.00
2022-11-21T07:36:12.807Z,96723.00
2022-11-21T07:38:41.423Z,96707.00
2022-11-21T07:41:09.726Z,96702.00
2022-11-21T07:43:36.825Z,96701.00
2022-11-21T07:46:04.002Z,96712.00
2022-11-21T07:48:31.159Z,96722.00
2022-11-21T07:50:58.185Z,96720.00
2022-11-21T07:53:25.466Z,96734.00
2022-11-21T07:55:52.642Z,96723.00
2022-11-21T07:58:19.715Z,96722.00
2022-11-21T08:00:46.935Z,96724.00
2022-11-21T08:03:14.424Z,96729.00
2022-11-21T08:05:44.000Z,96732.00
2022-11-21T08:08:12.892Z,96726.00
2022-11-21T08:10:45.730Z,96711.00
2022-11-21T08:13:13.515Z,96724.00
2022-11-21T08:15:41.073Z,96724.00
2022-11-21T08:18:19.173Z,96726.00
2022-11-21T08:20:46.826Z,96725.00
2022-11-21T08:23:14.106Z,96726.00
2022-11-21T08:25:42.961Z,96726.00
2022-11-21T08:28:11.890Z,96720.00
2022-11-21T08:30:40.124Z,96725.00
2022-11-21T08:33:07.799Z,96730.00
2022-11-21T08:35:38.429Z,96722.00
2022-11-21T08:38:06.548Z,96729.00
2022-11-21T08:40:34.959Z,96719.00
2022-11-21T08:43:10.860Z,96713.00
2022-11-21T08:45:39.747Z,96715.00
2022-11-21T08:48:11.995Z,96716.00
2022-11-21T08:50:39.380Z,96717.00
2022-11-21T08:53:06.646Z,96716.00
2022-11-21T08:55:33.911Z,96724.00
2022-11-21T08:58:01.132Z,96728.00
2022-11-21T09:00:28.995Z,96721.00
2022-11-21T09:02:56.249Z,96715.00
2022-11-21T09:05:23.253Z,96709.00
2022-11-21T09:07:57.747Z,96718.00
2022-11-21T09:10:29.523Z,96720.00
2022-11-21T09:12:59.975Z,96733.00
2022-11-21T09:15:45.881Z,96719.00
2022-11-21T09:18:13.193Z,96728.00
2022-11-21T09:20:43.540Z,96733.00
2022-11-21T09:23:16.720Z,96736.00
2022-11-21T09:25:46.897Z,96730.00
2022-11-21T09:28:14.885Z,96730.00
2022-11-21T09:30:43.202Z,96729.00
2022-11-21T09:33:16.916Z,96733.00
2022-11-21T09:35:44.379Z,96736.00
2022-11-21T09:38:12.757Z,96732.00
2022-11-21T09:40:45.302Z,96749.00
2022-11-21T09:43:38.368Z,96733.00
2022-11-21T09:46:16.227Z,96730.00
2022-11-21T09:48:59.141Z,96736.00
2022-11-21T09:51:31.214Z,96744.00
2022-11-21T09:54:07.007Z,96741.00
2022-11-21T09:56:39.554Z,96736.00
2022-11-21T09:59:21.681Z,96732.00
2022-11-21T10:01:49.007Z,96745.00
2022-11-21T10:04:16.320Z,96752.00
2022-11-21T10:07:10.434Z,96732.00
2022-11-21T10:10:15.035Z,96725.00
2022-11-21T10:13:37.825Z,96730.00
2022-11-21T10:16:31.352Z,96729.00
2022-11-21T10:19:15.380Z,96726.00
2022-11-21T10:22:29.216Z,96729.00
2022-11-21T10:25:26.872Z,96729.00
2022-11-21T10:28:02.376Z,96743.00
2022-11-21T10:30:29.998Z,96727.00
2022-11-21T10:33:05.481Z,96732.00
2022-11-21T10:35:40.805Z,96724.00
2022-11-21T10:38:26.710Z,96731.00
2022-11-21T10:41:05.532Z,96731.00
2022-11-21T10:44:17.748Z,96725.00
2022-11-21T10:46:59.584Z,96723.00
2022-11-21T10:49:30.006Z,96721.00
2022-11-21T10:52:10.289Z,96715.00
2022-11-21T10:55:03.225Z,96708.00
2022-11-21T10:57:44.168Z,96709.00
2022-11-21T11:00:34.747Z,96705.00
2022-11-21T11:03:10.364Z,96697.00
2022-11-21T11:05:38.650Z,96694.00
2022-11-21T11:08:08.923Z,96693.00
2022-11-21T11:11:04.374Z,96693.00
2022-11-21T11:13:45.985Z,96689.00
2022-11-21T11:16:21.172Z,96686.00
2022-11-21T11:19:14.968Z,96681.00
2022-11-21T11:21:44.476Z,96676.00
2022-11-21T11:24:11.610Z,96682.00
2022-11-21T11:26:48.930Z,96687.00
2022-11-21T11:29:22.073Z,96684.00
2022-11-21T11:32:10.556Z,96679.00
2022-11-21T11:34:42.298Z,96683.00
2022-11-21T11:37:42.454Z,96672.00
2022-11-21T11:40:23.417Z,96677.00
2022-11-21T11:43:54.083Z,96675.00
2022-11-21T11:47:19.170Z,96673.00
2022-11-21T11:50:11.436Z,96673.00
2022-11-21T11:53:12.246Z,96677.00
2022-11-21T11:56:20.789Z,96670.00
2022-11-21T11:59:40.780Z,96665.00
2022-11-21T12:02:27.673Z,96670.00
2022-11-21T12:05:08.595Z,96663.00
2022-11-21T12:11:08.096Z,96660.00
2022-11-21T12:13:37.386Z,96643.00
2022-11-21T12:16:13.780Z,96644.00
2022-11-21T12:19:00.760Z,96637.00
2022-11-21T12:21:29.294Z,96636.00
2022-11-21T12:23:58.537Z,96626.00
2022-11-21T12:27:02.877Z,96628.00
2022-11-21T12:30:10.811Z,96616.00
2022-11-21T12:33:08.238Z,96613.00
2022-11-21T12:35:47.968Z,96611.00
2022-11-21T12:38:43.489Z,96612.00
2022-11-21T12:42:03.177Z,96602.00
2022-11-21T12:45:12.646Z,96596.00
2022-11-21T12:48:29.086Z,96598.00
2022-11-21T12:51:46.075Z,96594.00
2022-11-21T12:54:57.990Z,96584.00
2022-11-21T12:57:58.836Z,96575.00
2022-11-21T13:01:21.740Z,96577.00
2022-11-21T13:04:05.601Z,96573.00
2022-11-21T13:06:39.378Z,96571.00
2022-11-21T13:09:12.900Z,96571.00
2022-11-21T13:12:00.651Z,96567.00
2022-11-21T13:14:52.179Z,96567.00
2022-11-21T13:17:28.611Z,96559.00
2022-11-21T13:20:37.629Z,96556.00
2022-11-21T13:23:08.983Z,96551.00
2022-11-21T13:25:41.053Z,96564.00
2022-11-21T13:28:14.194Z,96579.00
2022-11-21T13:30:57.997Z,96584.00
2022-11-21T13:33:37.429Z,96569.00
2022-11-21T13:36:09.388Z,96573.00
2022-11-21T13:39:32.703Z,96578.00
2022-11-21T13:42:27.793Z,96575.00
2022-11-21T13:44:55.382Z,96571.00
2022-11-21T13:47:56.732Z,96579.00
2022-11-21T13:50:37.892Z,96560.00
2022-11-21T13:53:40.462Z,96557.00
2022-11-21T13:56:35.041Z,96566.00
2022-11-21T13:59:22.977Z,96556.00
2022-11-21T14:02:07.646Z,96548.00
2022-11-21T14:05:24.163Z,96551.00
2022-11-21T14:07:51.544Z,96552.00
2022-11-21T14:10:34.473Z,96558.00
2022-11-21T14:13:03.696Z,96549.00
2022-11-21T14:15:49.857Z,96544.00
2022-11-21T14:18:25.014Z,96529.00
2022-11-21T14:20:57.469Z,96538.00
2022-11-21T14:23:28.519Z,96531.00
2022-11-21T14:26:20.062Z,96536.00
2022-11-21T14:28:47.981Z,96533.00
2022-11-21T14:31:16.014Z,96526.00
2022-11-21T14:33:48.030Z,96517.00
2022-11-21T14:36:22.027Z,96507.00
2022-11-21T14:39:28.809Z,96506.00
2022-11-21T14:41:51.986Z,96505.00
2022-11-21T14:44:22.139Z,96503.00
2022-11-21T14:46:50.756Z,96497.00
2022-11-21T14:49:23.108Z,96495.00
2022-11-21T14:52:11.320Z,96485.00
2022-11-21T14:55:28.587Z,96476.00
2022-11-21T14:57:42.972Z,96486.00
2022-11-21T15:00:43.396Z,96479.00
2022-11-21T15:03:05.348Z,96471.00
2022-11-21T15:06:00.758Z,96475.00
2022-11-21T15:11:15.420Z,96462.00
2022-11-21T15:16:33.537Z,96466.00
2022-11-21T15:19:00.625Z,96464.00
2022-11-21T15:21:27.898Z,96455.00
2022-11-21T15:23:55.957Z,96450.00
2022-11-21T15:26:31.817Z,96452.00
2022-11-21T15:29:01.137Z,96446.00
2022-11-21T15:31:28.628Z,96442.00
2022-11-21T15:34:34.727Z,96452.00
2022-11-21T15:37:27.921Z,96447.00
2022-11-21T15:39:55.225Z,96445.00
2022-11-21T15:42:33.934Z,96435.00
2022-11-21T15:45:20.020Z,96434.00
2022-11-21T15:48:03.172Z,96423.00
2022-11-21T15:50:30.382Z,96426.00
2022-11-21T15:52:57.434Z,96415.00
2022-11-21T15:55:31.626Z,96408.00
2022-11-21T15:57:13.406Z,96467.00
2022-11-21T15:57:58.709Z,96404.00
2022-11-21T16:00:25.883Z,96398.00
2022-11-21T16:02:53.162Z,96391.00
2022-11-21T16:05:20.342Z,96386.00
2022-11-21T16:07:48.517Z,96386.00
2022-11-21T16:10:21.396Z,96380.00
2022-11-21T16:12:53.385Z,96380.00
2022-11-21T16:15:20.621Z,96379.00
2022-11-21T16:17:48.057Z,96366.00
2022-11-21T16:20:15.636Z,96361.00
2022-11-21T16:22:47.066Z,96365.00
2022-11-21T16:25:15.616Z,96352.00
2022-11-21T16:27:42.763Z,96361.00
2022-11-21T16:30:10.515Z,96348.00
2022-11-21T16:32:38.220Z,96353.00
2022-11-21T16:35:06.247Z,96354.00
2022-11-21T16:37:33.753Z,96350.00
2022-11-21T16:40:00.927Z,96352.00
2022-11-21T16:42:29.139Z,96350.00
2022-11-21T16:44:56.150Z,96344.00
2022-11-21T16:47:23.340Z,96338.00
2022-11-21T16:49:50.541Z,96333.00
2022-11-21T16:52:18.231Z,96324.00
2022-11-21T16:54:45.583Z,96314.00
2022-11-21T16:57:12.730Z,96323.00
2022-11-21T16:59:39.823Z,96323.00
2022-11-21T17:02:07.253Z,96306.00
2022-11-21T17:04:36.198Z,96307.00
2022-11-21T17:07:03.454Z,96305.00
2022-11-21T17:09:30.996Z,96294.00
2022-11-21T17:11:59.399Z,96308.00
2022-11-21T17:14:26.888Z,96309.00
2022-11-21T17:16:54.412Z,96312.00
2022-11-21T17:19:22.031Z,96313.00
2022-11-21T17:21:49.188Z,96310.00
2022-11-21T17:24:16.452Z,96297.00
2022-11-21T17:26:43.560Z,96306.00
2022-11-21T17:29:10.729Z,96302.00
2022-11-21T17:31:37.891Z,96292.00
2022-11-21T17:34:04.982Z,96284.00
2022-11-21T17:36:34.630Z,96277.00
2022-11-21T17:39:02.121Z,96270.00
2022-11-21T17:41:29.311Z,96283.00
2022-11-21T17:43:58.136Z,96258.00
2022-11-21T17:46:26.722Z,96256.00
2022-11-21T17:48:58.259Z,96250.00
2022-11-21T17:51:34.892Z,96242.00
2022-11-21T17:54:02.697Z,96240.00
2022-11-21T17:56:33.340Z,96245.00
2022-11-21T17:59:00.786Z,96238.00
2022-11-21T18:01:28.730Z,96245.00
2022-11-21T18:04:02.145Z,96233.00
2022-11-21T18:06:37.982Z,96235.00
2022-11-21T18:09:07.261Z,96216.00
2022-11-21T18:11:39.993Z,96210.00
2022-11-21T18:14:10.143Z,96210.00
2022-11-21T18:16:39.433Z,96200.00
2022-11-21T18:19:07.493Z,96206.00
2022-11-21T18:21:38.239Z,96202.00
2022-11-21T18:24:05.681Z,96203.00
2022-11-21T18:26:36.860Z,96197.00
2022-11-21T18:29:34.568Z,96197.00
2022-11-21T18:31:54.445Z,96185.00
2022-11-21T18:34:21.512Z,96197.00
2022-11-21T18:36:51.417Z,96192.00
2022-11-21T18:39:18.851Z,96183.00
2022-11-21T18:41:47.137Z,96185.00
2022-11-21T18:44:21.435Z,96182.00
2022-11-21T18:46:49.253Z,96168.00
2022-11-21T18:49:16.499Z,96166.00
2022-11-21T18:51:43.546Z,96161.00
2022-11-21T18:54:11.394Z,96155.00
2022-11-21T18:56:39.941Z,96144.00
2022-11-21T18:59:07.967Z,96146.00
2022-11-21T19:01:37.529Z,96143.00
2022-11-21T19:04:05.516Z,96138.00
2022-11-21T19:06:32.778Z,96131.00
2022-11-21T19:08:59.983Z,96130.00
2022-11-21T19:11:29.798Z,96139.00
2022-11-21T19:13:59.304Z,96138.00
2022-11-21T19:16:28.743Z,96135.00
2022-11-21T19:21:43.918Z,96135.00
2022-11-21T19:24:19.559Z,96130.00
2022-11-21T19:26:46.861Z,96117.00
2022-11-21T19:29:14.058Z,96114.00
2022-11-21T19:31:45.772Z,96114.00
2022-11-21T19:34:15.098Z,96107.00
2022-11-21T19:36:42.993Z,96115.00
2022-11-21T19:39:10.654Z,96101.00
2022-11-21T19:41:38.086Z,96089.00
2022-11-21T19:44:05.207Z,96102.00
2022-11-21T19:46:38.695Z,96087.00
2022-11-21T19:49:07.439Z,96088.00
2022-11-21T19:51:41.176Z,96071.00
2022-11-21T19:54:12.163Z,96072.00
2022-11-21T19:56:40.432Z,96077.00
2022-11-21T19:59:09.996Z,96075.00
2022-11-21T20:01:39.383Z,96072.00
2022-11-21T20:04:07.132Z,96073.00
2022-11-21T20:06:37.450Z,96057.00
2022-11-21T20:09:07.647Z,96067.00
2022-11-21T20:11:38.335Z,96058.00
2022-11-21T20:14:05.580Z,96058.00
2022-11-21T20:16:41.342Z,96056.00
2022-11-21T20:19:14.964Z,96056.00
2022-11-21T20:21:43.818Z,96044.00
2022-11-21T20:24:12.458Z,96041.00
2022-11-21T20:26:40.600Z,96039.00
2022-11-21T20:29:08.791Z,96032.00
2022-11-21T20:31:37.520Z,96025.00
2022-11-21T20:34:09.964Z,96032.00
2022-11-21T20:36:37.126Z,96027.00
2022-11-21T20:39:14.393Z,96008.00
2022-11-21T20:41:41.705Z,96002.00
2022-11-21T20:45:36.426Z,96013.00
2022-11-21T20:47:18.598Z,96003.00
2022-11-21T20:49:45.741Z,95999.00
2022-11-21T20:54:59.986Z,95981.00
2022-11-21T20:57:27.663Z,95982.00
2022-11-21T20:59:54.826Z,95971.00
2022-11-21T21:02:21.912Z,95951.00
2022-11-21T21:04:49.108Z,95953.00
2022-11-21T21:07:16.450Z,95954.00
2022-11-21T21:09:43.570Z,95945.00
2022-11-21T21:12:10.765Z,95939.00
2022-11-21T21:14:37.839Z,95936.00
2022-11-21T21:17:05.034Z,95934.00
2022-11-21T21:19:32.315Z,95938.00
2022-11-21T21:21:59.797Z,95936.00
2022-11-21T21:24:27.782Z,95926.00
2022-11-21T21:26:54.952Z,95924.00
2022-11-21T21:29:22.402Z,95917.00
2022-11-21T21:31:52.301Z,95920.00
2022-11-21T21:34:22.187Z,95918.00
2022-11-21T21:36:50.876Z,95906.00
2022-11-21T21:39:18.292Z,95900.00
2022-11-21T21:41:47.305Z,95901.00
2022-11-21T21:44:15.997Z,95898.00
2022-11-21T21:46:43.602Z,95890.00
2022-11-21T21:49:11.071Z,95886.00
2022-11-21T21:51:38.655Z,95887.00
2022-11-21T21:54:06.591Z,95880.00
2022-11-21T21:56:34.354Z,95883.00
2022-11-21T21:59:01.707Z,95868.00
2022-11-21T22:01:33.290Z,95868.00
2022-11-21T22:04:04.982Z,95868.00
2022-11-21T22:06:35.010Z,95867.00
2022-11-21T22:09:03.221Z,95869.00
2022-11-21T22:11:33.270Z,95861.00
2022-11-21T22:14:04.764Z,95859.00
2022-11-21T22:16:33.585Z,95853.00
2022-11-21T22:19:00.656Z,95866.00
2022-11-21T22:21:32.855Z,95871.00
2022-11-21T22:24:24.154Z,95869.00
2022-11-21T22:26:50.055Z,95880.00
2022-11-21T22:29:17.478Z,95874.00
2022-11-21T22:31:44.734Z,95881.00
2022-11-21T22:34:15.949Z,95880.00
2022-11-21T22:36:43.479Z,95869.00
2022-11-21T22:39:10.598Z,95870.00
2022-11-21T22:41:37.847Z,95880.00
2022-11-21T22:44:05.304Z,95889.00
2022-11-21T22:46:33.022Z,95876.00
2022-11-21T22:49:00.052Z,95881.00
2022-11-21T22:51:29.821Z,95878.00
2022-11-21T22:53:57.377Z,95879.00
2022-11-21T22:56:26.043Z,95886.00
2022-11-21T22:58:53.679Z,95871.00
2022-11-21T23:01:24.007Z,95852.00
2022-11-21T23:03:51.668Z,95852.00
2022-11-21T23:06:24.748Z,95850.00
2022-11-21T23:08:53.607Z,95860.00
2022-11-21T23:11:27.902Z,95851.00
2022-11-21T23:13:56.729Z,95856.00
2022-11-21T23:16:24.738Z,95854.00
2022-11-21T23:18:56.851Z,95847.00
2022-11-21T23:21:24.340Z,95855.00
2022-11-21T23:23:51.391Z,95837.00
2022-11-21T23:26:19.062Z,95841.00
2022-11-21T23:28:46.248Z,95838.00
2022-11-21T23:31:13.762Z,95831.00
2022-11-21T23:33:40.945Z,95826.00
2022-11-21T23:36:08.029Z,95824.00
2022-11-21T23:38:35.408Z,95830.00
2022-11-21T23:41:02.514Z,95827.00
2022-11-21T23:43:29.671Z,95831.00
2022-11-21T23:45:56.800Z,95818.00
2022-11-21T23:48:27.452Z,95822.00
2022-11-21T23:50:54.571Z,95817.00
2022-11-21T23:53:22.633Z,95821.00
2022-11-21T23:55:49.835Z,95828.00
2022-11-21T23:58:17.335Z,95814.00
